createdAt,value
2022-08-27T00:02:21.686Z,47.46
2022-08-27T00:04:52.426Z,47.04
2022-08-27T00:07:24.724Z,47.36
2022-08-27T00:09:55.797Z,46.88
2022-08-27T00:12:26.555Z,46.87
2022-08-27T00:14:57.798Z,46.96
2022-08-27T00:17:29.144Z,47.06
2022-08-27T00:20:01.036Z,46.82
2022-08-27T00:22:34.381Z,46.83
2022-08-27T00:25:05.935Z,47.54
2022-08-27T00:27:37.244Z,46.79
2022-08-27T00:30:10.736Z,47.36
2022-08-27T00:32:41.518Z,47.50
2022-08-27T00:35:15.225Z,47.05
2022-08-27T00:37:48.874Z,47.47
2022-08-27T00:40:24.056Z,46.88
2022-08-27T00:42:56.118Z,47.17
2022-08-27T00:45:28.117Z,47.05
2022-08-27T00:48:03.411Z,47.50
2022-08-27T00:50:41.307Z,47.17
2022-08-27T00:53:19.619Z,47.16
2022-08-27T00:55:55.851Z,46.91
2022-08-27T00:58:33.086Z,47.13
2022-08-27T01:01:06.292Z,46.77
2022-08-27T01:03:37.834Z,46.97
2022-08-27T01:06:16.090Z,47.29
2022-08-27T01:08:59.643Z,46.96
2022-08-27T01:11:30.618Z,47.00
2022-08-27T01:14:01.561Z,46.90
2022-08-27T01:16:41.244Z,47.26
2022-08-27T01:19:25.616Z,47.05
2022-08-27T01:22:22.000Z,46.77
2022-08-27T01:25:00.204Z,46.79
2022-08-27T01:27:34.854Z,47.48
2022-08-27T01:30:07.231Z,47.38
2022-08-27T01:32:40.120Z,47.45
2022-08-27T01:35:13.535Z,47.34
2022-08-27T01:37:47.574Z,47.39
2022-08-27T01:40:22.387Z,47.27
2022-08-27T01:42:56.746Z,46.80
2022-08-27T01:45:31.416Z,47.08
2022-08-27T01:48:03.345Z,47.30
2022-08-27T01:50:38.957Z,47.01
2022-08-27T01:53:18.352Z,46.75
2022-08-27T01:55:53.389Z,46.86
2022-08-27T01:58:28.582Z,46.98
2022-08-27T02:01:05.812Z,46.70
2022-08-27T02:03:37.855Z,47.09
2022-08-27T02:06:13.611Z,46.95
2022-08-27T02:08:45.739Z,46.77
2022-08-27T02:11:18.203Z,46.91
2022-08-27T02:13:48.887Z,47.37
2022-08-27T02:16:19.315Z,47.35
2022-08-27T02:18:50.172Z,46.97
2022-08-27T02:21:21.708Z,47.33
2022-08-27T02:23:52.097Z,46.77
2022-08-27T02:26:25.429Z,46.88
2022-08-27T02:28:56.779Z,47.26
2022-08-27T02:31:28.169Z,47.25
2022-08-27T02:33:59.425Z,46.81
2022-08-27T02:36:29.483Z,46.88
2022-08-27T02:38:59.515Z,46.93
2022-08-27T02:41:33.063Z,46.96
2022-08-27T02:44:03.645Z,47.02
2022-08-27T02:46:57.155Z,47.46
2022-08-27T02:49:28.335Z,46.89
2022-08-27T02:51:59.883Z,46.94
2022-08-27T02:54:31.305Z,47.46
2022-08-27T02:57:03.836Z,47.27
2022-08-27T02:59:34.530Z,47.04
2022-08-27T03:02:05.594Z,47.03
2022-08-27T03:04:36.592Z,47.24
2022-08-27T03:07:07.679Z,47.02
2022-08-27T03:09:49.713Z,46.96
2022-08-27T03:12:22.897Z,47.35
2022-08-27T03:14:55.114Z,47.56
2022-08-27T03:17:42.472Z,47.42
2022-08-27T03:20:13.767Z,47.62
2022-08-27T03:22:44.191Z,47.07
2022-08-27T03:25:15.711Z,47.05
2022-08-27T03:27:48.617Z,47.05
2022-08-27T03:30:24.076Z,47.19
2022-08-27T03:32:56.027Z,47.67
2022-08-27T03:35:27.069Z,47.01
2022-08-27T03:37:58.172Z,47.05
2022-08-27T03:40:29.012Z,47.58
2022-08-27T03:43:01.586Z,47.43
2022-08-27T03:45:48.481Z,47.58
2022-08-27T03:48:23.441Z,47.71
2022-08-27T03:50:54.957Z,47.42
2022-08-27T03:53:25.414Z,47.20
2022-08-27T03:55:56.276Z,47.42
2022-08-27T03:58:29.200Z,46.93
2022-08-27T04:01:00.551Z,47.21
2022-08-27T04:03:31.440Z,47.18
2022-08-27T04:06:04.552Z,47.25
2022-08-27T04:08:34.910Z,47.01
2022-08-27T04:11:10.240Z,47.44
2022-08-27T04:13:44.435Z,47.28
2022-08-27T04:16:15.709Z,47.69
2022-08-27T04:18:46.985Z,47.44
2022-08-27T04:21:17.855Z,47.39
2022-08-27T04:23:48.636Z,46.98
2022-08-27T04:26:19.929Z,47.18
2022-08-27T04:28:52.954Z,47.04
2022-08-27T04:31:23.776Z,47.32
2022-08-27T04:33:55.604Z,47.43
2022-08-27T04:36:26.508Z,47.62
2022-08-27T04:38:57.135Z,47.77
2022-08-27T04:41:29.698Z,47.73
2022-08-27T04:44:09.799Z,47.56
2022-08-27T04:46:49.209Z,47.58
2022-08-27T04:49:19.848Z,47.59
2022-08-27T04:51:50.450Z,47.68
2022-08-27T04:54:25.994Z,47.25
2022-08-27T04:57:04.459Z,47.94
2022-08-27T04:59:39.407Z,47.67
2022-08-27T05:02:12.412Z,47.87
2022-08-27T05:04:44.096Z,47.92
2022-08-27T05:07:15.578Z,47.96
2022-08-27T05:09:46.085Z,48.02
2022-08-27T05:12:17.711Z,47.29
2022-08-27T05:14:51.282Z,47.96
2022-08-27T05:17:22.547Z,47.54
2022-08-27T05:19:53.913Z,47.34
2022-08-27T05:22:25.353Z,47.68
2022-08-27T05:24:56.762Z,48.01
2022-08-27T05:27:27.645Z,47.70
2022-08-27T05:30:01.036Z,47.64
2022-08-27T05:32:31.672Z,47.49
2022-08-27T05:35:02.472Z,47.90
2022-08-27T05:37:34.802Z,47.39
2022-08-27T05:40:06.871Z,47.81
2022-08-27T05:42:37.926Z,47.53
2022-08-27T05:45:14.791Z,47.64
2022-08-27T05:47:45.407Z,47.72
2022-08-27T05:50:18.009Z,47.70
2022-08-27T05:52:52.080Z,47.74
2022-08-27T05:55:22.877Z,47.58
2022-08-27T05:57:54.074Z,47.56
2022-08-27T06:00:43.805Z,47.55
2022-08-27T06:03:14.717Z,47.07
2022-08-27T06:05:45.520Z,47.10
2022-08-27T06:08:16.820Z,47.05
2022-08-27T06:10:47.997Z,47.54
2022-08-27T06:13:19.357Z,47.62
2022-08-27T06:15:51.495Z,47.54
2022-08-27T06:18:23.622Z,47.33
2022-08-27T06:20:54.492Z,46.93
2022-08-27T06:23:28.133Z,47.23
2022-08-27T06:25:59.776Z,47.26
2022-08-27T06:28:32.355Z,47.46
2022-08-27T06:31:11.238Z,47.43
2022-08-27T06:33:43.167Z,46.98
2022-08-27T06:36:17.807Z,47.25
2022-08-27T06:38:48.978Z,46.98
2022-08-27T06:41:25.785Z,47.20
2022-08-27T06:43:58.931Z,46.98
2022-08-27T06:46:33.255Z,46.96
2022-08-27T06:49:04.624Z,47.33
2022-08-27T06:51:39.068Z,47.43
2022-08-27T06:54:12.627Z,47.17
2022-08-27T06:56:45.678Z,47.23
2022-08-27T06:59:21.982Z,46.54
2022-08-27T07:01:54.292Z,46.51
2022-08-27T07:04:31.938Z,47.22
2022-08-27T07:07:04.096Z,47.18
2022-08-27T07:09:37.112Z,46.53
2022-08-27T07:12:10.185Z,47.11
2022-08-27T07:14:41.050Z,46.59
2022-08-27T07:17:15.861Z,46.62
2022-08-27T07:19:47.859Z,46.34
2022-08-27T07:22:18.673Z,46.35
2022-08-27T07:24:52.185Z,46.46
2022-08-27T07:27:23.975Z,46.27
2022-08-27T07:29:54.124Z,46.87
2022-08-27T07:32:30.645Z,46.87
2022-08-27T07:35:03.730Z,46.70
2022-08-27T07:37:35.412Z,46.75
2022-08-27T07:40:09.036Z,46.55
2022-08-27T07:42:59.721Z,46.53
2022-08-27T07:45:30.631Z,46.69
2022-08-27T07:48:03.508Z,46.32
2022-08-27T07:50:36.110Z,46.45
2022-08-27T07:53:08.224Z,46.57
2022-08-27T07:55:40.731Z,46.66
2022-08-27T07:58:13.923Z,46.33
2022-08-27T08:00:48.546Z,46.32
2022-08-27T08:03:21.419Z,46.61
2022-08-27T08:05:53.719Z,46.28
2022-08-27T08:08:25.777Z,46.02
2022-08-27T08:11:00.897Z,46.49
2022-08-27T08:13:31.898Z,46.46
2022-08-27T08:16:02.928Z,46.08
2022-08-27T08:18:37.163Z,46.12
2022-08-27T08:21:12.153Z,46.07
2022-08-27T08:23:43.975Z,46.46
2022-08-27T08:26:15.176Z,46.16
2022-08-27T08:28:46.758Z,45.75
2022-08-27T08:31:17.297Z,45.71
2022-08-27T08:33:50.837Z,46.22
2022-08-27T08:36:21.512Z,46.15
2022-08-27T08:38:51.965Z,45.97
2022-08-27T08:41:43.062Z,45.43
2022-08-27T08:44:33.089Z,45.53
2022-08-27T08:47:13.184Z,46.05
2022-08-27T08:49:57.792Z,46.06
2022-08-27T08:52:47.360Z,45.95
2022-08-27T08:55:39.543Z,45.75
2022-08-27T08:58:36.470Z,45.71
2022-08-27T09:01:11.965Z,45.78
2022-08-27T09:03:50.333Z,45.99
2022-08-27T09:06:39.996Z,45.59
2022-08-27T09:09:24.867Z,45.31
2022-08-27T09:12:05.887Z,45.52
2022-08-27T09:14:46.460Z,45.18
2022-08-27T09:17:18.112Z,45.19
2022-08-27T09:19:52.324Z,45.47
2022-08-27T09:22:36.829Z,45.08
2022-08-27T09:25:20.833Z,44.98
2022-08-27T09:27:55.678Z,45.53
2022-08-27T09:30:31.903Z,45.39
2022-08-27T09:33:05.425Z,45.28
2022-08-27T09:35:45.466Z,44.99
2022-08-27T09:38:31.582Z,45.43
2022-08-27T09:41:08.975Z,45.06
2022-08-27T09:43:44.642Z,45.34
2022-08-27T09:46:27.079Z,44.62
2022-08-27T09:48:59.111Z,45.06
2022-08-27T09:51:32.912Z,44.71
2022-08-27T09:54:07.690Z,44.73
2022-08-27T09:56:42.858Z,45.31
2022-08-27T09:59:25.946Z,44.87
2022-08-27T10:02:01.700Z,44.80
2022-08-27T10:04:50.369Z,45.26
2022-08-27T10:07:36.498Z,44.80
2022-08-27T10:10:19.877Z,45.27
2022-08-27T10:12:59.670Z,45.26
2022-08-27T10:15:43.938Z,44.55
2022-08-27T10:18:29.025Z,44.68
2022-08-27T10:21:15.639Z,44.64
2022-08-27T10:24:00.627Z,44.53
2022-08-27T10:26:47.838Z,44.64
2022-08-27T10:29:35.800Z,44.50
2022-08-27T10:32:26.363Z,44.98
2022-08-27T10:35:17.494Z,45.16
2022-08-27T10:38:01.743Z,44.94
2022-08-27T10:40:39.162Z,44.55
2022-08-27T10:43:44.987Z,44.94
2022-08-27T10:46:54.963Z,44.55
2022-08-27T10:49:37.724Z,45.00
2022-08-27T10:52:20.568Z,44.35
2022-08-27T10:55:01.649Z,44.42
2022-08-27T10:58:00.820Z,44.67
2022-08-27T11:00:46.205Z,44.97
2022-08-27T11:03:25.568Z,44.68
2022-08-27T11:06:13.471Z,44.98
2022-08-27T11:08:51.286Z,44.78
2022-08-27T11:14:35.771Z,44.35
2022-08-27T11:17:18.346Z,44.55
2022-08-27T11:19:59.575Z,44.39
2022-08-27T11:22:39.319Z,44.33
2022-08-27T11:25:29.991Z,44.45
2022-08-27T11:28:03.581Z,44.88
2022-08-27T11:30:48.661Z,44.20
2022-08-27T11:33:30.302Z,44.55
2022-08-27T11:36:54.432Z,44.68
2022-08-27T11:39:42.994Z,44.52
2022-08-27T11:42:26.173Z,44.85
2022-08-27T11:45:07.524Z,44.74
2022-08-27T11:47:38.925Z,44.33
2022-08-27T11:50:23.242Z,44.34
2022-08-27T11:53:06.893Z,44.93
2022-08-27T11:55:42.040Z,44.79
2022-08-27T11:58:27.658Z,45.09
2022-08-27T12:01:04.297Z,44.35
2022-08-27T12:03:37.714Z,44.44
2022-08-27T12:06:30.249Z,44.67
2022-08-27T12:09:18.749Z,44.28
2022-08-27T12:12:04.643Z,44.78
2022-08-27T12:14:48.186Z,44.58
2022-08-27T12:17:38.601Z,44.91
2022-08-27T12:20:25.381Z,44.77
2022-08-27T12:23:45.409Z,44.37
2022-08-27T12:26:34.150Z,44.67
2022-08-27T12:29:30.547Z,44.64
2022-08-27T12:32:17.938Z,44.64
2022-08-27T12:35:01.328Z,44.25
2022-08-27T12:37:38.290Z,44.40
2022-08-27T12:40:22.953Z,44.18
2022-08-27T12:43:08.722Z,44.35
2022-08-27T12:45:50.174Z,44.55
2022-08-27T12:48:27.036Z,44.75
2022-08-27T12:51:03.634Z,44.54
2022-08-27T12:53:48.946Z,44.69
2022-08-27T12:56:54.746Z,44.58
2022-08-27T13:00:05.035Z,44.68
2022-08-27T13:03:00.552Z,44.52
2022-08-27T13:05:41.993Z,44.46
2022-08-27T13:08:24.954Z,44.93
2022-08-27T13:10:55.971Z,44.65
2022-08-27T13:13:29.276Z,44.66
2022-08-27T13:16:06.992Z,44.28
2022-08-27T13:18:41.054Z,44.40
2022-08-27T13:21:22.873Z,44.73
2022-08-27T13:23:59.936Z,44.86
2022-08-27T13:26:38.021Z,44.52
2022-08-27T13:29:13.674Z,44.86
2022-08-27T13:31:45.433Z,44.40
2022-08-27T13:34:23.030Z,44.26
2022-08-27T13:37:05.248Z,44.48
2022-08-27T13:39:38.441Z,44.43
2022-08-27T13:42:11.939Z,44.79
2022-08-27T13:44:48.355Z,44.87
2022-08-27T13:47:24.947Z,44.43
2022-08-27T13:50:04.952Z,44.68
2022-08-27T13:52:59.466Z,44.97
2022-08-27T13:55:31.461Z,44.62
2022-08-27T13:58:15.973Z,44.96
2022-08-27T14:00:50.265Z,44.89
2022-08-27T14:03:33.617Z,44.33
2022-08-27T14:06:05.526Z,44.74
2022-08-27T14:08:38.764Z,44.35
2022-08-27T14:11:13.302Z,44.57
2022-08-27T14:13:49.690Z,44.57
2022-08-27T14:16:30.895Z,44.72
2022-08-27T14:19:11.833Z,44.45
2022-08-27T14:21:46.585Z,43.91
2022-08-27T14:24:17.274Z,44.95
2022-08-27T14:26:51.821Z,44.65
2022-08-27T14:29:22.902Z,44.80
2022-08-27T14:31:55.991Z,44.57
2022-08-27T14:34:27.649Z,45.08
2022-08-27T14:36:58.618Z,45.25
2022-08-27T14:39:28.980Z,44.67
2022-08-27T14:41:59.450Z,45.18
2022-08-27T14:44:31.271Z,45.10
2022-08-27T14:47:04.302Z,44.97
2022-08-27T14:49:52.353Z,44.67
2022-08-27T14:52:23.411Z,44.88
2022-08-27T14:54:55.079Z,45.16
2022-08-27T14:57:26.143Z,44.86
2022-08-27T14:59:57.210Z,44.78
2022-08-27T15:02:30.141Z,44.38
2022-08-27T15:05:01.460Z,44.98
2022-08-27T15:07:45.638Z,44.59
2022-08-27T15:10:18.282Z,44.39
2022-08-27T15:12:49.342Z,44.49
2022-08-27T15:15:20.930Z,45.03
2022-08-27T15:17:54.237Z,44.39
2022-08-27T15:20:25.737Z,44.66
2022-08-27T15:22:56.831Z,44.48
2022-08-27T15:25:29.686Z,44.57
2022-08-27T15:28:00.755Z,45.07
2022-08-27T15:30:33.558Z,45.18
2022-08-27T15:33:09.203Z,45.34
2022-08-27T15:35:39.959Z,45.37
2022-08-27T15:38:11.405Z,45.07
2022-08-27T15:40:42.441Z,45.03
2022-08-27T15:43:15.977Z,45.27
2022-08-27T15:45:46.492Z,44.92
2022-08-27T15:48:19.509Z,45.52
2022-08-27T15:50:50.412Z,44.81
2022-08-27T15:53:26.232Z,45.60
2022-08-27T15:55:56.962Z,45.02
2022-08-27T15:58:29.169Z,45.19
2022-08-27T16:01:11.333Z,44.90
2022-08-27T16:03:46.905Z,45.44
2022-08-27T16:06:19.453Z,45.35
2022-08-27T16:08:50.338Z,45.71
2022-08-27T16:11:23.385Z,45.09
2022-08-27T16:13:55.004Z,45.57
2022-08-27T16:16:30.897Z,45.29
2022-08-27T16:19:07.017Z,45.80
2022-08-27T16:21:38.884Z,45.48
2022-08-27T16:24:11.552Z,45.47
2022-08-27T16:26:42.677Z,45.21
2022-08-27T16:29:12.619Z,45.15
2022-08-27T16:31:43.510Z,45.58
2022-08-27T16:34:22.566Z,45.21
2022-08-27T16:36:53.150Z,45.63
2022-08-27T16:39:23.709Z,45.96
2022-08-27T16:41:54.570Z,45.72
2022-08-27T16:44:28.070Z,45.93
2022-08-27T16:46:58.789Z,46.02
2022-08-27T16:49:47.795Z,45.29
2022-08-27T16:52:18.850Z,45.89
2022-08-27T16:54:49.644Z,45.48
2022-08-27T16:57:20.460Z,46.00
2022-08-27T16:59:52.311Z,45.89
2022-08-27T17:02:31.088Z,45.49
2022-08-27T17:05:30.584Z,46.17
2022-08-27T17:07:55.747Z,46.22
2022-08-27T17:10:27.023Z,46.20
2022-08-27T17:12:58.083Z,45.84
2022-08-27T17:15:29.137Z,45.91
2022-08-27T17:17:59.140Z,46.40
2022-08-27T17:20:33.189Z,45.90
2022-08-27T17:23:09.053Z,46.16
2022-08-27T17:25:40.993Z,45.88
2022-08-27T17:28:12.399Z,45.71
2022-08-27T17:30:43.366Z,46.02
2022-08-27T17:33:22.388Z,45.76
2022-08-27T17:35:58.258Z,46.34
2022-08-27T17:38:29.223Z,46.52
2022-08-27T17:41:00.603Z,46.24
2022-08-27T17:43:31.940Z,46.44
2022-08-27T17:46:03.266Z,46.38
2022-08-27T17:48:33.945Z,46.50
2022-08-27T17:51:07.299Z,46.11
2022-08-27T17:53:37.755Z,46.52
2022-08-27T17:56:09.462Z,45.79
2022-08-27T17:58:41.847Z,46.30
2022-08-27T18:01:13.251Z,45.96
2022-08-27T18:03:47.906Z,46.12
2022-08-27T18:06:20.817Z,46.22
2022-08-27T18:08:52.714Z,46.19
2022-08-27T18:11:23.326Z,46.39
2022-08-27T18:14:04.090Z,46.26
2022-08-27T18:16:36.459Z,45.76
2022-08-27T18:19:07.984Z,46.32
2022-08-27T18:21:46.542Z,45.90
2022-08-27T18:24:27.470Z,45.79
2022-08-27T18:26:57.531Z,46.32
2022-08-27T18:29:30.501Z,46.20
2022-08-27T18:32:01.211Z,46.14
2022-08-27T18:34:33.102Z,46.54
2022-08-27T18:37:06.042Z,45.86
2022-08-27T18:39:39.655Z,45.89
2022-08-27T18:42:12.663Z,46.56
2022-08-27T18:44:46.878Z,46.58
2022-08-27T18:47:17.722Z,46.55
2022-08-27T18:49:48.278Z,46.50
2022-08-27T18:52:24.737Z,46.05
2022-08-27T18:54:55.337Z,46.54
2022-08-27T18:57:27.631Z,46.64
2022-08-27T18:59:58.333Z,46.57
2022-08-27T19:02:29.040Z,46.25
2022-08-27T19:04:59.766Z,46.87
2022-08-27T19:07:33.239Z,46.36
2022-08-27T19:10:04.058Z,46.49
2022-08-27T19:12:36.894Z,46.45
2022-08-27T19:15:11.952Z,46.33
2022-08-27T19:17:47.191Z,46.48
2022-08-27T19:20:19.719Z,46.43
2022-08-27T19:22:52.578Z,46.88
2022-08-27T19:25:24.176Z,47.09
2022-08-27T19:27:56.029Z,46.86
2022-08-27T19:30:26.962Z,46.86
2022-08-27T19:32:57.749Z,46.66
2022-08-27T19:35:30.446Z,46.62
2022-08-27T19:38:03.364Z,46.80
2022-08-27T19:40:34.649Z,46.27
2022-08-27T19:43:05.818Z,46.73
2022-08-27T19:45:39.812Z,46.76
2022-08-27T19:48:13.046Z,46.57
2022-08-27T19:50:43.934Z,46.86
2022-08-27T19:53:17.878Z,47.29
2022-08-27T19:55:48.683Z,46.57
2022-08-27T19:58:21.333Z,47.10
2022-08-27T20:00:52.763Z,47.25
2022-08-27T20:03:23.866Z,46.99
2022-08-27T20:05:57.479Z,46.72
2022-08-27T20:08:30.469Z,47.24
2022-08-27T20:11:02.334Z,46.69
2022-08-27T20:13:34.626Z,46.82
2022-08-27T20:16:06.919Z,47.31
2022-08-27T20:18:44.323Z,47.30
2022-08-27T20:21:15.294Z,47.20
2022-08-27T20:23:48.630Z,46.85
2022-08-27T20:26:20.355Z,47.12
2022-08-27T20:28:51.213Z,46.84
2022-08-27T20:31:22.174Z,47.01
2022-08-27T20:33:53.515Z,47.46
2022-08-27T20:36:28.097Z,46.83
2022-08-27T20:39:01.937Z,46.87
2022-08-27T20:41:32.527Z,47.03
2022-08-27T20:44:03.565Z,47.46
2022-08-27T20:46:38.872Z,46.94
2022-08-27T20:49:10.518Z,47.29
2022-08-27T20:52:02.265Z,47.57
2022-08-27T20:54:34.317Z,47.10
2022-08-27T20:57:06.497Z,46.95
2022-08-27T20:59:53.878Z,47.14
2022-08-27T21:02:27.896Z,47.57
2022-08-27T21:04:59.687Z,46.87
2022-08-27T21:07:31.427Z,47.38
2022-08-27T21:10:05.247Z,46.86
2022-08-27T21:12:36.283Z,46.99
2022-08-27T21:15:10.511Z,47.27
2022-08-27T21:17:41.674Z,47.05
2022-08-27T21:20:14.441Z,47.12
2022-08-27T21:22:46.899Z,47.11
2022-08-27T21:25:20.806Z,47.36
2022-08-27T21:27:51.662Z,46.92
2022-08-27T21:30:25.513Z,46.98
2022-08-27T21:32:57.140Z,47.36
2022-08-27T21:35:29.930Z,47.05
2022-08-27T21:38:03.472Z,47.53
2022-08-27T21:40:35.465Z,47.20
2022-08-27T21:43:05.701Z,47.41
2022-08-27T21:45:36.131Z,47.58
2022-08-27T21:48:07.249Z,47.44
2022-08-27T21:50:38.395Z,47.55
2022-08-27T21:53:08.999Z,47.73
2022-08-27T21:55:44.725Z,47.18
2022-08-27T21:58:16.952Z,47.88
2022-08-27T22:00:51.358Z,47.42
2022-08-27T22:03:25.071Z,47.29
2022-08-27T22:05:56.586Z,47.27
2022-08-27T22:08:28.042Z,47.90
2022-08-27T22:11:01.986Z,47.63
2022-08-27T22:13:32.976Z,47.72
2022-08-27T22:16:03.656Z,48.07
2022-08-27T22:18:34.694Z,47.99
2022-08-27T22:21:06.906Z,48.15
2022-08-27T22:23:37.123Z,47.41
2022-08-27T22:26:10.643Z,48.11
2022-08-27T22:28:41.639Z,47.42
2022-08-27T22:31:12.421Z,47.94
2022-08-27T22:33:43.168Z,48.19
2022-08-27T22:36:14.536Z,48.06
2022-08-27T22:38:44.957Z,47.54
2022-08-27T22:41:19.347Z,48.28
2022-08-27T22:43:56.697Z,47.59
2022-08-27T22:46:28.454Z,47.86
2022-08-27T22:48:59.265Z,47.78
2022-08-27T22:51:30.542Z,47.54
2022-08-27T22:54:01.215Z,47.67
2022-08-27T22:56:33.356Z,47.59
2022-08-27T22:59:04.078Z,48.09
2022-08-27T23:01:39.405Z,47.38
2022-08-27T23:04:10.285Z,48.10
2022-08-27T23:06:41.261Z,47.67
2022-08-27T23:09:11.822Z,47.99
2022-08-27T23:11:44.722Z,47.95
2022-08-27T23:14:15.907Z,47.46
2022-08-27T23:16:47.090Z,48.07
2022-08-27T23:19:17.147Z,47.64
2022-08-27T23:21:50.945Z,47.44
2022-08-27T23:24:21.884Z,47.73
2022-08-27T23:27:11.913Z,47.26
2022-08-27T23:29:43.502Z,47.38
2022-08-27T23:32:13.651Z,47.58
2022-08-27T23:34:44.891Z,47.32
2022-08-27T23:37:16.021Z,47.27
2022-08-27T23:39:46.749Z,47.41
2022-08-27T23:42:20.207Z,47.75
2022-08-27T23:44:51.680Z,47.52
2022-08-27T23:47:22.527Z,47.40
2022-08-27T23:49:52.853Z,47.30
2022-08-27T23:52:23.523Z,47.40
2022-08-27T23:54:53.732Z,48.13
2022-08-27T23:57:26.401Z,47.94
2022-08-27T23:59:56.685Z,47.63
